Terminal Aerodrome Forecast
Issued by NWS

Home | Current Version | Previous Version | Text Only | Print | Product List | Glossary On
Versions: 1 2 3 4 5 6 7 8 9 10 11 12 13 14 15 16
000
FTUS43 KGRR 220025 AAA
TAFLAN
TAF AMD
KLAN 220025Z 2200/2224 25004KT P6SM OVC013
     FM220300 00000KT 3SM BR BKN015
     FM220500 18005KT 1SM BR BKN008
     FM220600 19005KT 1/2SM FG VV001
     FM220900 20005KT 1SM BR BKN003
     FM221600 22012KT 4SM HZ OVC250
     FM221900 21014KT P6SM SCT250=

USA.gov is the U.S. government's official web portal to all federal, state and local government web resources and services.